sensor_id;sensor_type;location;lat;lon;timestamp;pressure;altitude;pressure_sealevel;temperature;humidity
56689;BME280;42565;53.342;-1.534;2023-12-20T00:01:33;99027.35;;;5.91;75.36
56689;BME280;42565;53.342;-1.534;2023-12-20T00:04:01;99026.82;;;6.22;74.99
56689;BME280;42565;53.342;-1.534;2023-12-20T00:06:29;99020.03;;;5.89;75.08
56689;BME280;42565;53.342;-1.534;2023-12-20T00:08:56;99019.99;;;5.95;75.74
56689;BME280;42565;53.342;-1.534;2023-12-20T00:11:23;99002.77;;;6.06;75.06
56689;BME280;42565;53.342;-1.534;2023-12-20T00:13:51;99006.21;;;5.37;76.63
56689;BME280;42565;53.342;-1.534;2023-12-20T00:16:17;99014.11;;;5.82;76.13
56689;BME280;42565;53.342;-1.534;2023-12-20T00:18:45;99004.39;;;5.87;75.78
56689;BME280;42565;53.342;-1.534;2023-12-20T00:21:11;99026.01;;;6.27;73.26
56689;BME280;42565;53.342;-1.534;2023-12-20T00:23:39;99028.15;;;6.75;71.86
56689;BME280;42565;53.342;-1.534;2023-12-20T00:26:06;99020.66;;;6.29;72.38
56689;BME280;42565;53.342;-1.534;2023-12-20T00:28:32;99024.87;;;5.70;74.57
56689;BME280;42565;53.342;-1.534;2023-12-20T00:30:59;99033.48;;;5.81;74.65
56689;BME280;42565;53.342;-1.534;2023-12-20T00:33:26;99028.72;;;5.93;73.97
56689;BME280;42565;53.342;-1.534;2023-12-20T00:35:53;99022.31;;;6.01;73.07
56689;BME280;42565;53.342;-1.534;2023-12-20T00:38:20;99030.61;;;6.33;72.60
56689;BME280;42565;53.342;-1.534;2023-12-20T00:40:48;99024.81;;;5.23;77.85
56689;BME280;42565;53.342;-1.534;2023-12-20T00:43:15;99032.02;;;5.19;78.23
56689;BME280;42565;53.342;-1.534;2023-12-20T00:45:43;99040.78;;;5.91;76.24
56689;BME280;42565;53.342;-1.534;2023-12-20T00:48:10;99046.98;;;6.01;75.12
56689;BME280;42565;53.342;-1.534;2023-12-20T00:50:37;99046.73;;;6.42;73.95
56689;BME280;42565;53.342;-1.534;2023-12-20T00:53:04;99046.97;;;5.81;76.17
56689;BME280;42565;53.342;-1.534;2023-12-20T00:55:32;99040.91;;;5.83;76.14
56689;BME280;42565;53.342;-1.534;2023-12-20T00:57:59;99014.73;;;5.66;75.90
56689;BME280;42565;53.342;-1.534;2023-12-20T01:00:26;99028.50;;;5.71;76.06
56689;BME280;42565;53.342;-1.534;2023-12-20T01:02:53;99034.31;;;5.88;77.16
56689;BME280;42565;53.342;-1.534;2023-12-20T01:05:20;99030.41;;;6.11;75.37
56689;BME280;42565;53.342;-1.534;2023-12-20T01:07:47;99033.12;;;6.08;74.61
56689;BME280;42565;53.342;-1.534;2023-12-20T01:10:14;99027.70;;;6.81;72.42
56689;BME280;42565;53.342;-1.534;2023-12-20T01:12:43;99018.81;;;6.45;72.28
56689;BME280;42565;53.342;-1.534;2023-12-20T01:15:10;99024.98;;;6.18;75.26
56689;BME280;42565;53.342;-1.534;2023-12-20T01:17:37;99030.46;;;6.53;74.41
56689;BME280;42565;53.342;-1.534;2023-12-20T01:20:05;99002.56;;;5.91;76.51
56689;BME280;42565;53.342;-1.534;2023-12-20T01:22:32;99015.50;;;6.38;75.61
56689;BME280;42565;53.342;-1.534;2023-12-20T01:25:00;98994.28;;;5.91;75.68
56689;BME280;42565;53.342;-1.534;2023-12-20T01:27:26;98993.25;;;5.91;75.88
56689;BME280;42565;53.342;-1.534;2023-12-20T01:29:53;99004.86;;;6.49;74.17
56689;BME280;42565;53.342;-1.534;2023-12-20T01:32:20;99000.79;;;6.47;72.70
56689;BME280;42565;53.342;-1.534;2023-12-20T01:34:47;99010.23;;;6.62;72.74
56689;BME280;42565;53.342;-1.534;2023-12-20T01:37:14;99015.09;;;6.81;72.95
56689;BME280;42565;53.342;-1.534;2023-12-20T01:39:40;99008.02;;;6.18;75.89
56689;BME280;42565;53.342;-1.534;2023-12-20T01:42:07;98994.69;;;5.99;76.79
56689;BME280;42565;53.342;-1.534;2023-12-20T01:44:35;99006.29;;;6.34;76.86
56689;BME280;42565;53.342;-1.534;2023-12-20T01:47:02;98989.31;;;6.47;75.19
56689;BME280;42565;53.342;-1.534;2023-12-20T01:49:29;98981.93;;;6.23;75.16
56689;BME280;42565;53.342;-1.534;2023-12-20T01:51:57;98992.96;;;5.92;76.95
56689;BME280;42565;53.342;-1.534;2023-12-20T01:54:23;98985.88;;;5.86;76.61
56689;BME280;42565;53.342;-1.534;2023-12-20T01:56:51;98963.69;;;6.58;74.66
56689;BME280;42565;53.342;-1.534;2023-12-20T01:59:20;98976.78;;;6.54;74.40
56689;BME280;42565;53.342;-1.534;2023-12-20T02:01:47;98976.32;;;6.24;73.90
56689;BME280;42565;53.342;-1.534;2023-12-20T02:04:15;98976.53;;;6.51;73.23
56689;BME280;42565;53.342;-1.534;2023-12-20T02:06:42;98985.86;;;6.75;73.37
56689;BME280;42565;53.342;-1.534;2023-12-20T02:09:10;98984.85;;;6.40;74.04
56689;BME280;42565;53.342;-1.534;2023-12-20T02:11:38;98981.47;;;6.12;76.07
56689;BME280;42565;53.342;-1.534;2023-12-20T02:14:05;98988.75;;;6.43;75.09
56689;BME280;42565;53.342;-1.534;2023-12-20T02:16:32;98970.63;;;6.43;75.41
56689;BME280;42565;53.342;-1.534;2023-12-20T02:18:59;98976.45;;;6.61;76.32
56689;BME280;42565;53.342;-1.534;2023-12-20T02:21:31;98979.25;;;6.55;77.39
56689;BME280;42565;53.342;-1.534;2023-12-20T02:23:59;98971.82;;;6.43;79.72
56689;BME280;42565;53.342;-1.534;2023-12-20T02:26:25;98958.81;;;6.32;79.67
56689;BME280;42565;53.342;-1.534;2023-12-20T02:28:53;98969.52;;;6.37;79.39
56689;BME280;42565;53.342;-1.534;2023-12-20T02:31:21;98965.24;;;6.46;78.82
56689;BME280;42565;53.342;-1.534;2023-12-20T02:33:47;98978.57;;;6.24;80.32
56689;BME280;42565;53.342;-1.534;2023-12-20T02:36:14;98970.04;;;6.39;81.27
56689;BME280;42565;53.342;-1.534;2023-12-20T02:38:41;98958.41;;;6.30;80.31
56689;BME280;42565;53.342;-1.534;2023-12-20T02:41:08;98960.47;;;6.35;80.19
56689;BME280;42565;53.342;-1.534;2023-12-20T02:43:34;98974.11;;;6.92;78.21
56689;BME280;42565;53.342;-1.534;2023-12-20T02:46:01;98971.84;;;6.70;77.62
56689;BME280;42565;53.342;-1.534;2023-12-20T02:48:29;98970.62;;;6.71;78.02
56689;BME280;42565;53.342;-1.534;2023-12-20T02:50:56;98956.89;;;6.74;78.50
56689;BME280;42565;53.342;-1.534;2023-12-20T02:53:24;98962.23;;;6.70;78.68
56689;BME280;42565;53.342;-1.534;2023-12-20T02:55:50;98962.32;;;7.07;78.58
56689;BME280;42565;53.342;-1.534;2023-12-20T02:58:17;98961.85;;;7.14;78.60
56689;BME280;42565;53.342;-1.534;2023-12-20T03:00:44;98956.49;;;7.28;78.01
56689;BME280;42565;53.342;-1.534;2023-12-20T03:03:11;98951.22;;;6.56;80.11
56689;BME280;42565;53.342;-1.534;2023-12-20T03:05:37;98950.64;;;6.56;80.54
56689;BME280;42565;53.342;-1.534;2023-12-20T03:08:05;98961.59;;;5.99;83.08
56689;BME280;42565;53.342;-1.534;2023-12-20T03:10:32;98948.75;;;5.52;85.06
56689;BME280;42565;53.342;-1.534;2023-12-20T03:12:59;98939.52;;;6.03;82.35
56689;BME280;42565;53.342;-1.534;2023-12-20T03:15:25;98947.77;;;6.36;81.48
56689;BME280;42565;53.342;-1.534;2023-12-20T03:17:52;98940.82;;;6.30;82.93
56689;BME280;42565;53.342;-1.534;2023-12-20T03:20:19;98929.40;;;6.45;82.97
56689;BME280;42565;53.342;-1.534;2023-12-20T03:22:46;98920.69;;;6.30;83.96
56689;BME280;42565;53.342;-1.534;2023-12-20T03:25:13;98929.32;;;6.42;83.94
56689;BME280;42565;53.342;-1.534;2023-12-20T03:27:40;98935.65;;;6.21;84.93
56689;BME280;42565;53.342;-1.534;2023-12-20T03:30:07;98936.93;;;6.20;86.08
56689;BME280;42565;53.342;-1.534;2023-12-20T03:32:34;98943.75;;;6.19;85.99
56689;BME280;42565;53.342;-1.534;2023-12-20T03:35:02;98951.50;;;6.11;85.76
56689;BME280;42565;53.342;-1.534;2023-12-20T03:37:28;98953.95;;;5.95;86.54
56689;BME280;42565;53.342;-1.534;2023-12-20T03:39:55;98965.90;;;6.01;87.39
56689;BME280;42565;53.342;-1.534;2023-12-20T03:42:22;98976.50;;;6.34;85.82
56689;BME280;42565;53.342;-1.534;2023-12-20T03:44:49;98961.82;;;6.90;84.12
56689;BME280;42565;53.342;-1.534;2023-12-20T03:47:15;98957.54;;;6.04;84.82
56689;BME280;42565;53.342;-1.534;2023-12-20T03:49:42;98962.06;;;5.64;84.26
56689;BME280;42565;53.342;-1.534;2023-12-20T03:52:09;98933.60;;;5.82;86.16
56689;BME280;42565;53.342;-1.534;2023-12-20T03:54:36;98946.50;;;6.01;85.91
56689;BME280;42565;53.342;-1.534;2023-12-20T03:57:03;98950.93;;;6.28;84.85
56689;BME280;42565;53.342;-1.534;2023-12-20T03:59:34;98951.61;;;6.06;83.91
56689;BME280;42565;53.342;-1.534;2023-12-20T04:02:02;98946.55;;;6.46;83.93
56689;BME280;42565;53.342;-1.534;2023-12-20T04:04:29;98945.29;;;6.41;83.71
56689;BME280;42565;53.342;-1.534;2023-12-20T04:06:57;98938.97;;;6.70;83.50
56689;BME280;42565;53.342;-1.534;2023-12-20T04:09:24;98955.27;;;6.47;84.66
56689;BME280;42565;53.342;-1.534;2023-12-20T04:11:50;98932.64;;;6.36;84.94
56689;BME280;42565;53.342;-1.534;2023-12-20T04:14:17;98948.23;;;6.49;85.09
56689;BME280;42565;53.342;-1.534;2023-12-20T04:16:44;98926.93;;;6.51;85.35
56689;BME280;42565;53.342;-1.534;2023-12-20T04:19:11;98929.81;;;6.34;85.00
56689;BME280;42565;53.342;-1.534;2023-12-20T04:21:37;98927.82;;;6.53;83.58
56689;BME280;42565;53.342;-1.534;2023-12-20T04:24:05;98920.96;;;7.20;82.40
56689;BME280;42565;53.342;-1.534;2023-12-20T04:26:32;98921.78;;;6.79;82.75
56689;BME280;42565;53.342;-1.534;2023-12-20T04:28:59;98907.78;;;6.75;81.72
56689;BME280;42565;53.342;-1.534;2023-12-20T04:31:26;98899.92;;;6.52;82.34
56689;BME280;42565;53.342;-1.534;2023-12-20T04:33:53;98894.04;;;6.97;79.67
56689;BME280;42565;53.342;-1.534;2023-12-20T04:36:20;98897.24;;;7.12;80.48
56689;BME280;42565;53.342;-1.534;2023-12-20T04:38:46;98890.46;;;6.64;82.48
56689;BME280;42565;53.342;-1.534;2023-12-20T04:41:13;98892.71;;;6.23;84.37
56689;BME280;42565;53.342;-1.534;2023-12-20T04:43:40;98895.37;;;6.45;84.56
56689;BME280;42565;53.342;-1.534;2023-12-20T04:46:06;98892.09;;;6.55;84.65
56689;BME280;42565;53.342;-1.534;2023-12-20T04:48:33;98903.28;;;6.99;82.81
56689;BME280;42565;53.342;-1.534;2023-12-20T04:51:00;98914.30;;;7.08;83.63
56689;BME280;42565;53.342;-1.534;2023-12-20T04:53:28;98923.51;;;6.16;87.08
56689;BME280;42565;53.342;-1.534;2023-12-20T04:55:55;98923.23;;;6.57;86.47
56689;BME280;42565;53.342;-1.534;2023-12-20T04:58:22;98935.47;;;6.76;86.30
56689;BME280;42565;53.342;-1.534;2023-12-20T05:00:49;98924.21;;;6.83;86.28
56689;BME280;42565;53.342;-1.534;2023-12-20T05:03:16;98928.81;;;6.41;87.93
56689;BME280;42565;53.342;-1.534;2023-12-20T05:05:43;98921.04;;;6.33;88.28
56689;BME280;42565;53.342;-1.534;2023-12-20T05:08:09;98907.17;;;6.19;88.97
56689;BME280;42565;53.342;-1.534;2023-12-20T05:10:36;98918.57;;;6.79;87.26
56689;BME280;42565;53.342;-1.534;2023-12-20T05:13:04;98910.24;;;6.24;89.73
56689;BME280;42565;53.342;-1.534;2023-12-20T05:15:30;98918.03;;;6.49;90.16
56689;BME280;42565;53.342;-1.534;2023-12-20T05:17:57;98928.54;;;6.56;87.67
56689;BME280;42565;53.342;-1.534;2023-12-20T05:20:24;98941.43;;;6.72;88.13
56689;BME280;42565;53.342;-1.534;2023-12-20T05:22:51;98925.97;;;6.46;87.91
56689;BME280;42565;53.342;-1.534;2023-12-20T05:25:18;98932.16;;;6.66;87.65
56689;BME280;42565;53.342;-1.534;2023-12-20T05:27:45;98922.58;;;6.71;86.93
56689;BME280;42565;53.342;-1.534;2023-12-20T05:30:12;98925.96;;;6.37;86.86
56689;BME280;42565;53.342;-1.534;2023-12-20T05:32:39;98922.82;;;6.61;85.73
56689;BME280;42565;53.342;-1.534;2023-12-20T05:35:06;98928.63;;;7.10;83.21
56689;BME280;42565;53.342;-1.534;2023-12-20T05:37:34;98921.92;;;6.76;81.71
56689;BME280;42565;53.342;-1.534;2023-12-20T05:40:00;98922.05;;;6.84;82.41
56689;BME280;42565;53.342;-1.534;2023-12-20T05:42:27;98897.35;;;6.42;83.82
56689;BME280;42565;53.342;-1.534;2023-12-20T05:44:54;98906.45;;;6.55;83.36
56689;BME280;42565;53.342;-1.534;2023-12-20T05:47:21;98899.89;;;6.56;82.14
56689;BME280;42565;53.342;-1.534;2023-12-20T05:49:47;98898.57;;;6.52;82.72
56689;BME280;42565;53.342;-1.534;2023-12-20T05:52:14;98901.18;;;6.87;80.92
56689;BME280;42565;53.342;-1.534;2023-12-20T05:54:41;98888.24;;;6.74;80.75
56689;BME280;42565;53.342;-1.534;2023-12-20T05:57:08;98889.65;;;6.41;83.79
56689;BME280;42565;53.342;-1.534;2023-12-20T05:59:34;98889.94;;;6.67;82.49
56689;BME280;42565;53.342;-1.534;2023-12-20T06:02:03;98902.09;;;6.88;81.73
56689;BME280;42565;53.342;-1.534;2023-12-20T06:04:30;98885.79;;;6.86;82.73
56689;BME280;42565;53.342;-1.534;2023-12-20T06:06:57;98888.54;;;6.94;82.95
56689;BME280;42565;53.342;-1.534;2023-12-20T06:09:24;98897.28;;;6.59;84.37
56689;BME280;42565;53.342;-1.534;2023-12-20T06:11:51;98884.79;;;6.14;85.71
56689;BME280;42565;53.342;-1.534;2023-12-20T06:14:17;98897.11;;;6.10;86.93
56689;BME280;42565;53.342;-1.534;2023-12-20T06:16:45;98893.41;;;6.31;86.58
56689;BME280;42565;53.342;-1.534;2023-12-20T06:19:12;98882.74;;;6.12;85.11
56689;BME280;42565;53.342;-1.534;2023-12-20T06:21:38;98891.98;;;6.30;84.46
56689;BME280;42565;53.342;-1.534;2023-12-20T06:24:06;98882.95;;;6.54;82.83
56689;BME280;42565;53.342;-1.534;2023-12-20T06:26:32;98900.92;;;6.26;82.91
56689;BME280;42565;53.342;-1.534;2023-12-20T06:29:00;98898.83;;;6.95;82.07
56689;BME280;42565;53.342;-1.534;2023-12-20T06:31:27;98914.38;;;6.29;82.60
56689;BME280;42565;53.342;-1.534;2023-12-20T06:33:53;98915.66;;;6.83;81.36
56689;BME280;42565;53.342;-1.534;2023-12-20T06:36:20;98911.27;;;6.88;79.65
56689;BME280;42565;53.342;-1.534;2023-12-20T06:38:47;98906.26;;;6.77;80.66
56689;BME280;42565;53.342;-1.534;2023-12-20T06:41:14;98904.50;;;6.79;79.24
56689;BME280;42565;53.342;-1.534;2023-12-20T06:43:42;98906.53;;;6.88;81.00
56689;BME280;42565;53.342;-1.534;2023-12-20T06:46:10;98903.72;;;7.16;78.33
56689;BME280;42565;53.342;-1.534;2023-12-20T06:48:37;98917.29;;;7.81;77.58
56689;BME280;42565;53.342;-1.534;2023-12-20T06:51:05;98911.37;;;7.01;77.68
56689;BME280;42565;53.342;-1.534;2023-12-20T06:53:32;98923.93;;;7.20;77.43
56689;BME280;42565;53.342;-1.534;2023-12-20T06:55:58;98915.02;;;6.95;76.82
56689;BME280;42565;53.342;-1.534;2023-12-20T06:58:25;98911.39;;;7.17;76.58
56689;BME280;42565;53.342;-1.534;2023-12-20T07:00:52;98911.08;;;7.31;78.18
56689;BME280;42565;53.342;-1.534;2023-12-20T07:03:20;98926.40;;;7.06;78.64
56689;BME280;42565;53.342;-1.534;2023-12-20T07:05:47;98938.30;;;7.34;80.09
56689;BME280;42565;53.342;-1.534;2023-12-20T07:08:14;98933.01;;;7.01;80.15
56689;BME280;42565;53.342;-1.534;2023-12-20T07:10:41;98951.50;;;7.26;81.10
56689;BME280;42565;53.342;-1.534;2023-12-20T07:13:08;98950.24;;;7.26;81.08
56689;BME280;42565;53.342;-1.534;2023-12-20T07:15:35;98944.03;;;7.05;82.18
56689;BME280;42565;53.342;-1.534;2023-12-20T07:18:01;98933.41;;;7.43;82.44
56689;BME280;42565;53.342;-1.534;2023-12-20T07:20:28;98917.93;;;7.00;82.63
56689;BME280;42565;53.342;-1.534;2023-12-20T07:22:55;98927.31;;;7.11;82.70
56689;BME280;42565;53.342;-1.534;2023-12-20T07:25:21;98910.49;;;6.97;83.95
56689;BME280;42565;53.342;-1.534;2023-12-20T07:27:48;98915.16;;;6.97;84.22
56689;BME280;42565;53.342;-1.534;2023-12-20T07:30:15;98921.66;;;7.10;82.80
56689;BME280;42565;53.342;-1.534;2023-12-20T07:32:42;98920.08;;;6.04;84.18
56689;BME280;42565;53.342;-1.534;2023-12-20T07:35:09;98927.28;;;6.55;82.99
56689;BME280;42565;53.342;-1.534;2023-12-20T07:37:37;98925.04;;;7.08;81.13
56689;BME280;42565;53.342;-1.534;2023-12-20T07:40:04;98922.90;;;6.78;81.34
56689;BME280;42565;53.342;-1.534;2023-12-20T07:42:32;98942.83;;;7.17;81.26
56689;BME280;42565;53.342;-1.534;2023-12-20T07:44:59;98935.42;;;7.06;80.76
56689;BME280;42565;53.342;-1.534;2023-12-20T07:47:26;98945.04;;;6.89;81.00
56689;BME280;42565;53.342;-1.534;2023-12-20T07:49:53;98939.86;;;7.19;80.20
56689;BME280;42565;53.342;-1.534;2023-12-20T07:52:21;98949.09;;;7.52;78.10
56689;BME280;42565;53.342;-1.534;2023-12-20T07:54:47;98951.39;;;6.57;80.52
56689;BME280;42565;53.342;-1.534;2023-12-20T07:57:14;98932.60;;;6.68;80.73
56689;BME280;42565;53.342;-1.534;2023-12-20T07:59:41;98937.85;;;6.90;79.44
56689;BME280;42565;53.342;-1.534;2023-12-20T08:02:08;98932.15;;;6.94;78.75
56689;BME280;42565;53.342;-1.534;2023-12-20T08:04:35;98924.48;;;6.57;80.92
56689;BME280;42565;53.342;-1.534;2023-12-20T08:07:04;98930.61;;;6.58;81.79
56689;BME280;42565;53.342;-1.534;2023-12-20T08:09:31;98942.54;;;6.94;80.48
56689;BME280;42565;53.342;-1.534;2023-12-20T08:11:58;98945.93;;;7.20;80.26
56689;BME280;42565;53.342;-1.534;2023-12-20T08:14:25;98952.08;;;7.20;80.48
56689;BME280;42565;53.342;-1.534;2023-12-20T08:16:52;98964.44;;;7.46;81.81
56689;BME280;42565;53.342;-1.534;2023-12-20T08:19:19;98954.27;;;7.33;82.88
56689;BME280;42565;53.342;-1.534;2023-12-20T08:21:45;98966.78;;;7.43;83.30
56689;BME280;42565;53.342;-1.534;2023-12-20T08:24:13;98954.93;;;6.93;84.71
56689;BME280;42565;53.342;-1.534;2023-12-20T08:26:40;98968.19;;;6.62;84.23
56689;BME280;42565;53.342;-1.534;2023-12-20T08:29:06;98968.96;;;7.01;83.13
56689;BME280;42565;53.342;-1.534;2023-12-20T08:31:33;98980.04;;;6.94;82.70
56689;BME280;42565;53.342;-1.534;2023-12-20T08:34:00;98971.06;;;7.10;82.63
56689;BME280;42565;53.342;-1.534;2023-12-20T08:36:28;98967.88;;;6.89;82.79
56689;BME280;42565;53.342;-1.534;2023-12-20T08:38:55;98948.34;;;6.42;83.84
56689;BME280;42565;53.342;-1.534;2023-12-20T08:41:23;98952.73;;;6.79;82.39
56689;BME280;42565;53.342;-1.534;2023-12-20T08:43:49;98954.67;;;7.16;81.24
56689;BME280;42565;53.342;-1.534;2023-12-20T08:46:16;98956.00;;;6.72;84.25
56689;BME280;42565;53.342;-1.534;2023-12-20T08:48:43;98945.93;;;6.90;83.02
56689;BME280;42565;53.342;-1.534;2023-12-20T08:51:10;98953.93;;;6.82;83.26
56689;BME280;42565;53.342;-1.534;2023-12-20T08:53:37;98950.78;;;6.30;84.30
56689;BME280;42565;53.342;-1.534;2023-12-20T08:56:05;98962.92;;;6.82;84.54
56689;BME280;42565;53.342;-1.534;2023-12-20T08:58:32;98969.62;;;7.09;84.36
56689;BME280;42565;53.342;-1.534;2023-12-20T09:00:59;98955.72;;;7.03;84.63
56689;BME280;42565;53.342;-1.534;2023-12-20T09:03:26;98974.78;;;6.82;85.49
56689;BME280;42565;53.342;-1.534;2023-12-20T09:05:53;98966.45;;;7.12;85.01
56689;BME280;42565;53.342;-1.534;2023-12-20T09:08:20;98979.05;;;7.27;82.39
56689;BME280;42565;53.342;-1.534;2023-12-20T09:10:47;98969.68;;;7.19;82.27
56689;BME280;42565;53.342;-1.534;2023-12-20T09:13:14;98959.71;;;7.06;82.76
56689;BME280;42565;53.342;-1.534;2023-12-20T09:15:40;98961.12;;;7.27;81.11
56689;BME280;42565;53.342;-1.534;2023-12-20T09:18:08;98969.17;;;6.71;82.24
56689;BME280;42565;53.342;-1.534;2023-12-20T09:20:35;98978.33;;;6.87;82.76
56689;BME280;42565;53.342;-1.534;2023-12-20T09:23:02;98961.10;;;7.03;82.67
56689;BME280;42565;53.342;-1.534;2023-12-20T09:25:30;98943.71;;;7.46;81.42
56689;BME280;42565;53.342;-1.534;2023-12-20T09:27:56;98934.79;;;7.59;81.20
56689;BME280;42565;53.342;-1.534;2023-12-20T09:30:23;98933.34;;;7.40;82.60
56689;BME280;42565;53.342;-1.534;2023-12-20T09:32:51;98931.42;;;7.64;82.26
56689;BME280;42565;53.342;-1.534;2023-12-20T09:35:17;98947.54;;;7.98;82.05
56689;BME280;42565;53.342;-1.534;2023-12-20T09:37:44;98934.23;;;8.27;81.44
56689;BME280;42565;53.342;-1.534;2023-12-20T09:40:13;98927.50;;;7.45;86.02
56689;BME280;42565;53.342;-1.534;2023-12-20T09:42:47;98930.83;;;7.44;85.94
56689;BME280;42565;53.342;-1.534;2023-12-20T09:45:15;98940.16;;;7.86;85.15
56689;BME280;42565;53.342;-1.534;2023-12-20T09:47:43;98945.20;;;7.98;85.14
56689;BME280;42565;53.342;-1.534;2023-12-20T09:50:10;98938.85;;;8.35;83.72
56689;BME280;42565;53.342;-1.534;2023-12-20T09:52:39;98931.62;;;8.31;84.39
56689;BME280;42565;53.342;-1.534;2023-12-20T09:55:08;98929.82;;;7.80;87.30
56689;BME280;42565;53.342;-1.534;2023-12-20T09:57:35;98925.44;;;7.89;87.11
56689;BME280;42565;53.342;-1.534;2023-12-20T10:00:03;98927.70;;;8.59;84.94
56689;BME280;42565;53.342;-1.534;2023-12-20T10:02:31;98927.78;;;8.49;85.53
56689;BME280;42565;53.342;-1.534;2023-12-20T10:04:58;98924.01;;;8.40;84.90
56689;BME280;42565;53.342;-1.534;2023-12-20T10:07:26;98931.31;;;8.01;87.23
56689;BME280;42565;53.342;-1.534;2023-12-20T10:09:54;98929.64;;;7.44;89.20
56689;BME280;42565;53.342;-1.534;2023-12-20T10:12:21;98923.94;;;7.95;88.19
56689;BME280;42565;53.342;-1.534;2023-12-20T10:14:48;98920.42;;;7.27;92.12
56689;BME280;42565;53.342;-1.534;2023-12-20T10:17:15;98913.58;;;7.51;91.47
56689;BME280;42565;53.342;-1.534;2023-12-20T10:19:43;98900.81;;;7.16;92.23
56689;BME280;42565;53.342;-1.534;2023-12-20T10:22:10;98907.70;;;7.58;90.78
56689;BME280;42565;53.342;-1.534;2023-12-20T10:24:38;98908.26;;;7.13;93.05
56689;BME280;42565;53.342;-1.534;2023-12-20T10:27:07;98894.32;;;7.24;92.23
56689;BME280;42565;53.342;-1.534;2023-12-20T10:29:36;98881.10;;;7.38;93.22
56689;BME280;42565;53.342;-1.534;2023-12-20T10:32:24;98879.89;;;7.45;93.91
56689;BME280;42565;53.342;-1.534;2023-12-20T10:34:50;98872.97;;;7.22;94.21
56689;BME280;42565;53.342;-1.534;2023-12-20T10:37:17;98881.97;;;7.21;93.82
56689;BME280;42565;53.342;-1.534;2023-12-20T10:39:49;98874.89;;;7.74;92.34
56689;BME280;42565;53.342;-1.534;2023-12-20T10:42:16;98856.01;;;7.63;92.52
56689;BME280;42565;53.342;-1.534;2023-12-20T10:44:43;98841.00;;;7.36;93.53
56689;BME280;42565;53.342;-1.534;2023-12-20T10:47:11;98839.69;;;6.87;96.39
56689;BME280;42565;53.342;-1.534;2023-12-20T10:49:40;98822.98;;;6.76;97.42
56689;BME280;42565;53.342;-1.534;2023-12-20T10:52:09;98799.79;;;7.26;95.30
56689;BME280;42565;53.342;-1.534;2023-12-20T10:54:38;98804.70;;;6.84;97.07
56689;BME280;42565;53.342;-1.534;2023-12-20T10:57:06;98815.41;;;7.14;97.96
56689;BME280;42565;53.342;-1.534;2023-12-20T10:59:36;98820.43;;;6.52;99.52
56689;BME280;42565;53.342;-1.534;2023-12-20T11:02:04;98800.74;;;6.73;99.55
56689;BME280;42565;53.342;-1.534;2023-12-20T11:04:39;98795.63;;;6.98;99.10
56689;BME280;42565;53.342;-1.534;2023-12-20T11:07:19;98794.36;;;6.71;99.37
56689;BME280;42565;53.342;-1.534;2023-12-20T11:09:57;98781.37;;;6.70;99.03
56689;BME280;42565;53.342;-1.534;2023-12-20T11:12:32;98758.40;;;6.52;100.00
56689;BME280;42565;53.342;-1.534;2023-12-20T11:15:05;98742.60;;;6.55;100.00
56689;BME280;42565;53.342;-1.534;2023-12-20T11:17:33;98745.60;;;6.76;100.00
56689;BME280;42565;53.342;-1.534;2023-12-20T11:20:16;98733.23;;;6.97;100.00
56689;BME280;42565;53.342;-1.534;2023-12-20T11:22:53;98714.33;;;6.93;99.23
56689;BME280;42565;53.342;-1.534;2023-12-20T11:25:20;98718.09;;;7.05;99.88
56689;BME280;42565;53.342;-1.534;2023-12-20T11:28:09;98717.24;;;6.70;100.00
56689;BME280;42565;53.342;-1.534;2023-12-20T11:30:47;98719.19;;;6.44;100.00
56689;BME280;42565;53.342;-1.534;2023-12-20T11:33:15;98712.35;;;7.03;99.92
56689;BME280;42565;53.342;-1.534;2023-12-20T11:35:42;98720.50;;;6.87;99.48
56689;BME280;42565;53.342;-1.534;2023-12-20T11:38:10;98717.23;;;6.77;100.00
56689;BME280;42565;53.342;-1.534;2023-12-20T11:40:37;98702.70;;;7.14;99.84
56689;BME280;42565;53.342;-1.534;2023-12-20T11:43:05;98679.91;;;7.34;98.67
56689;BME280;42565;53.342;-1.534;2023-12-20T11:45:31;98680.11;;;6.70;100.00
56689;BME280;42565;53.342;-1.534;2023-12-20T11:47:58;98658.30;;;6.73;100.00
56689;BME280;42565;53.342;-1.534;2023-12-20T11:50:26;98658.16;;;6.87;99.65
56689;BME280;42565;53.342;-1.534;2023-12-20T11:52:53;98651.40;;;6.55;98.78
56689;BME280;42565;53.342;-1.534;2023-12-20T11:55:20;98663.96;;;6.66;99.46
56689;BME280;42565;53.342;-1.534;2023-12-20T11:57:48;98644.44;;;6.54;97.83
56689;BME280;42565;53.342;-1.534;2023-12-20T12:00:16;98632.71;;;6.94;99.20
56689;BME280;42565;53.342;-1.534;2023-12-20T12:02:55;98612.60;;;6.62;98.32
56689;BME280;42565;53.342;-1.534;2023-12-20T12:05:22;98606.43;;;7.19;96.97
56689;BME280;42565;53.342;-1.534;2023-12-20T12:07:49;98596.41;;;6.92;97.11
56689;BME280;42565;53.342;-1.534;2023-12-20T12:10:16;98590.32;;;6.87;97.14
56689;BME280;42565;53.342;-1.534;2023-12-20T12:12:44;98584.79;;;6.50;100.00
56689;BME280;42565;53.342;-1.534;2023-12-20T12:15:11;98582.79;;;6.87;98.50
56689;BME280;42565;53.342;-1.534;2023-12-20T12:17:39;98581.91;;;7.16;98.03
56689;BME280;42565;53.342;-1.534;2023-12-20T12:20:07;98577.22;;;6.36;98.27
56689;BME280;42565;53.342;-1.534;2023-12-20T12:22:34;98567.97;;;6.92;96.77
56689;BME280;42565;53.342;-1.534;2023-12-20T12:25:10;98585.27;;;7.76;94.91
56689;BME280;42565;53.342;-1.534;2023-12-20T12:27:40;98583.85;;;7.08;96.70
56689;BME280;42565;53.342;-1.534;2023-12-20T12:30:09;98575.96;;;7.31;96.38
56689;BME280;42565;53.342;-1.534;2023-12-20T12:32:36;98574.43;;;7.09;96.37
56689;BME280;42565;53.342;-1.534;2023-12-20T12:35:04;98571.10;;;6.97;98.52
56689;BME280;42565;53.342;-1.534;2023-12-20T12:37:33;98572.28;;;6.79;99.57
56689;BME280;42565;53.342;-1.534;2023-12-20T12:40:01;98589.38;;;7.08;100.00
56689;BME280;42565;53.342;-1.534;2023-12-20T12:42:28;98567.02;;;6.55;100.00
56689;BME280;42565;53.342;-1.534;2023-12-20T12:44:55;98557.13;;;6.88;99.04
56689;BME280;42565;53.342;-1.534;2023-12-20T12:47:22;98563.31;;;7.22;97.78
56689;BME280;42565;53.342;-1.534;2023-12-20T12:49:51;98563.14;;;7.01;97.05
56689;BME280;42565;53.342;-1.534;2023-12-20T12:52:18;98558.00;;;7.65;97.35
56689;BME280;42565;53.342;-1.534;2023-12-20T12:54:45;98566.98;;;7.08;97.11
56689;BME280;42565;53.342;-1.534;2023-12-20T12:57:13;98552.57;;;7.07;96.87
56689;BME280;42565;53.342;-1.534;2023-12-20T12:59:41;98563.28;;;6.99;98.45
56689;BME280;42565;53.342;-1.534;2023-12-20T13:02:08;98558.92;;;6.96;99.81